createdAt,value
2019-05-22T00:02:28.926Z,94.88
2019-05-22T00:05:06.121Z,95.12
2019-05-22T00:07:35.734Z,95.11
2019-05-22T00:10:06.479Z,95.82
2019-05-22T00:12:46.815Z,95.14
2019-05-22T00:15:10.210Z,94.85
2019-05-22T00:17:39.506Z,94.44
2019-05-22T00:20:09.883Z,94.20
2019-05-22T00:22:41.407Z,94.63
2019-05-22T00:25:15.250Z,94.51
2019-05-22T00:27:44.492Z,94.73
2019-05-22T00:30:16.455Z,94.65
2019-05-22T00:32:47.339Z,94.51
2019-05-22T00:35:19.063Z,94.35
2019-05-22T00:37:47.749Z,94.21
2019-05-22T00:40:18.294Z,94.42
2019-05-22T00:43:02.958Z,95.05
2019-05-22T00:45:22.512Z,94.65
2019-05-22T00:47:51.990Z,95.27
2019-05-22T00:50:24.865Z,94.94
2019-05-22T00:53:21.941Z,95.20
2019-05-22T00:56:11.889Z,94.55
2019-05-22T00:58:47.239Z,95.12
2019-05-22T01:01:26.834Z,95.46
2019-05-22T01:03:57.682Z,96.00
2019-05-22T01:06:28.956Z,95.34
2019-05-22T01:08:59.722Z,95.48
2019-05-22T01:11:29.419Z,94.96
2019-05-22T01:13:58.068Z,96.12
2019-05-22T01:16:27.191Z,96.34
2019-05-22T01:18:57.702Z,95.93
2019-05-22T01:21:26.554Z,96.14
2019-05-22T01:23:59.780Z,95.81
2019-05-22T01:26:28.955Z,94.62
2019-05-22T01:28:57.610Z,94.66
2019-05-22T01:31:30.968Z,93.96
2019-05-22T01:34:02.428Z,94.58
2019-05-22T01:36:38.294Z,94.66
2019-05-22T01:39:30.996Z,95.33
2019-05-22T01:42:01.624Z,95.33
2019-05-22T01:44:30.346Z,94.19
2019-05-22T01:47:03.277Z,94.06
2019-05-22T01:49:31.932Z,94.52
2019-05-22T01:52:01.130Z,94.28
2019-05-22T01:54:30.842Z,95.05
2019-05-22T01:57:04.949Z,94.87
2019-05-22T01:59:36.136Z,95.09
2019-05-22T02:02:06.597Z,95.48
2019-05-22T02:04:35.812Z,95.51
2019-05-22T02:07:05.020Z,95.32
2019-05-22T02:09:37.545Z,95.51
2019-05-22T02:12:15.777Z,96.14
2019-05-22T02:14:46.641Z,95.68
2019-05-22T02:17:16.244Z,96.24
2019-05-22T02:19:45.796Z,95.93
2019-05-22T02:22:15.458Z,95.87
2019-05-22T02:24:44.910Z,96.42
2019-05-22T02:27:14.049Z,96.39
2019-05-22T02:29:43.277Z,96.79
2019-05-22T02:32:14.266Z,95.98
2019-05-22T02:34:43.866Z,95.80
2019-05-22T02:37:14.996Z,95.68
2019-05-22T02:39:44.741Z,95.73
2019-05-22T02:42:19.171Z,96.70
2019-05-22T02:44:48.815Z,97.63
2019-05-22T02:47:21.113Z,97.25
2019-05-22T02:49:50.113Z,96.84
2019-05-22T02:52:20.184Z,96.47
2019-05-22T02:54:49.723Z,96.31
2019-05-22T02:57:19.128Z,97.72
2019-05-22T02:59:47.781Z,97.10
2019-05-22T03:02:16.715Z,97.29
2019-05-22T03:04:55.809Z,97.39
2019-05-22T03:07:25.935Z,97.40
2019-05-22T03:09:54.809Z,97.18
2019-05-22T03:12:24.285Z,96.52
2019-05-22T03:14:53.081Z,97.44
2019-05-22T03:17:28.285Z,97.39
2019-05-22T03:19:59.813Z,97.56
2019-05-22T03:22:34.565Z,97.06
2019-05-22T03:25:06.296Z,97.41
2019-05-22T03:27:40.840Z,97.48
2019-05-22T03:30:15.154Z,98.11
2019-05-22T03:32:57.623Z,97.49
2019-05-22T03:35:28.261Z,98.14
2019-05-22T03:37:59.261Z,98.39
2019-05-22T03:40:29.924Z,99.08
2019-05-22T03:43:02.055Z,99.33
2019-05-22T03:45:31.265Z,99.49
2019-05-22T03:48:01.707Z,99.45
2019-05-22T03:50:30.436Z,98.36
2019-05-22T03:53:06.220Z,98.76
2019-05-22T03:55:34.995Z,98.96
2019-05-22T03:58:04.080Z,98.83
2019-05-22T04:00:33.230Z,98.23
2019-05-22T04:03:03.759Z,98.36
2019-05-22T04:05:33.456Z,97.93
2019-05-22T04:08:04.218Z,97.64
2019-05-22T04:10:40.849Z,97.30
2019-05-22T04:13:07.274Z,97.01
2019-05-22T04:15:36.456Z,97.28
2019-05-22T04:18:15.075Z,97.10
2019-05-22T04:20:43.902Z,97.92
2019-05-22T04:23:12.618Z,96.72
2019-05-22T04:25:41.322Z,96.51
2019-05-22T04:28:10.051Z,96.69
2019-05-22T04:30:39.933Z,96.72
2019-05-22T04:33:08.597Z,96.51
2019-05-22T04:35:37.379Z,96.97
2019-05-22T04:38:06.100Z,96.80
2019-05-22T04:40:56.819Z,96.91
2019-05-22T04:43:28.504Z,96.54
2019-05-22T04:45:59.106Z,96.37
2019-05-22T04:48:29.212Z,97.03
2019-05-22T04:51:01.007Z,97.17
2019-05-22T04:53:29.810Z,96.80
2019-05-22T04:55:58.847Z,95.96
2019-05-22T04:58:30.428Z,96.26
2019-05-22T05:00:59.634Z,96.80
2019-05-22T05:03:29.246Z,97.69
2019-05-22T05:05:58.909Z,97.52
2019-05-22T05:08:28.604Z,97.75
2019-05-22T05:10:58.959Z,98.06
2019-05-22T05:13:27.720Z,97.64
2019-05-22T05:15:56.375Z,98.05
2019-05-22T05:18:25.250Z,98.53
2019-05-22T05:20:54.472Z,98.18
2019-05-22T05:23:23.314Z,98.51
2019-05-22T05:25:52.046Z,99.35
2019-05-22T05:28:21.680Z,99.00
2019-05-22T05:30:50.472Z,98.34
2019-05-22T05:33:19.694Z,98.47
2019-05-22T05:35:48.901Z,98.32
2019-05-22T05:38:17.574Z,98.58
2019-05-22T05:40:47.098Z,98.02
2019-05-22T05:43:17.820Z,97.98
2019-05-22T05:45:48.606Z,97.84
2019-05-22T05:48:24.194Z,97.85
2019-05-22T05:51:27.264Z,97.42
2019-05-22T05:54:06.163Z,97.02
2019-05-22T05:56:35.609Z,96.68
2019-05-22T05:59:06.406Z,96.63
2019-05-22T06:01:38.725Z,96.46
2019-05-22T06:04:09.018Z,94.89
2019-05-22T06:07:16.539Z,94.42
2019-05-22T06:09:48.412Z,95.16
2019-05-22T06:12:17.391Z,94.51
2019-05-22T06:14:46.709Z,94.20
2019-05-22T06:17:59.541Z,94.25
2019-05-22T06:20:28.383Z,94.24
2019-05-22T06:23:52.161Z,93.61
2019-05-22T06:26:37.183Z,93.60
2019-05-22T06:29:07.549Z,91.75
2019-05-22T06:31:44.621Z,89.71
2019-05-22T06:34:13.319Z,89.88
2019-05-22T06:36:42.825Z,88.96
2019-05-22T06:39:16.071Z,88.47
2019-05-22T06:41:45.375Z,85.84
2019-05-22T06:44:43.179Z,86.80
2019-05-22T06:47:21.671Z,87.80
2019-05-22T06:49:55.260Z,85.45
2019-05-22T06:52:24.417Z,87.15
2019-05-22T06:54:54.668Z,86.85
2019-05-22T06:57:42.532Z,86.72
2019-05-22T07:00:17.478Z,86.90
2019-05-22T07:02:46.928Z,86.16
2019-05-22T07:05:16.928Z,86.86
2019-05-22T07:07:47.039Z,86.95
2019-05-22T07:10:16.489Z,87.40
2019-05-22T07:12:45.401Z,86.75
2019-05-22T07:15:46.345Z,86.53
2019-05-22T07:18:17.860Z,85.86
2019-05-22T07:20:47.266Z,85.40
2019-05-22T07:23:18.845Z,85.24
2019-05-22T07:25:48.731Z,83.95
2019-05-22T07:28:19.234Z,84.23
2019-05-22T07:30:48.788Z,83.87
2019-05-22T07:33:18.970Z,83.23
2019-05-22T07:36:07.702Z,83.16
2019-05-22T07:38:19.366Z,83.08
2019-05-22T07:40:51.079Z,82.60
2019-05-22T07:43:21.406Z,82.88
2019-05-22T07:45:50.877Z,82.57
2019-05-22T07:48:20.926Z,84.34
2019-05-22T07:50:52.073Z,84.54
2019-05-22T07:53:21.186Z,82.87
2019-05-22T07:55:51.074Z,83.02
2019-05-22T07:58:20.254Z,82.39
2019-05-22T08:00:58.972Z,81.85
2019-05-22T08:03:28.550Z,82.05
2019-05-22T08:05:59.180Z,81.73
2019-05-22T08:08:30.161Z,82.15
2019-05-22T08:10:59.596Z,82.01
2019-05-22T08:13:29.651Z,81.25
2019-05-22T08:15:59.003Z,82.24
2019-05-22T08:18:30.426Z,82.02
2019-05-22T08:20:59.626Z,82.47
2019-05-22T08:23:29.375Z,83.00
2019-05-22T08:25:59.676Z,83.01
2019-05-22T08:28:31.173Z,82.64
2019-05-22T08:31:01.001Z,82.87
2019-05-22T08:33:29.986Z,83.43
2019-05-22T08:35:59.540Z,83.27
2019-05-22T08:38:31.032Z,82.66
2019-05-22T08:41:00.836Z,83.42
2019-05-22T08:43:49.574Z,82.61
2019-05-22T08:46:04.836Z,81.90
2019-05-22T08:48:36.930Z,82.33
2019-05-22T08:51:06.794Z,82.86
2019-05-22T08:53:46.734Z,82.29
2019-05-22T08:56:07.649Z,82.39
2019-05-22T08:58:40.962Z,83.80
2019-05-22T09:01:10.916Z,83.45
2019-05-22T09:03:39.974Z,82.91
2019-05-22T09:06:09.103Z,82.24
2019-05-22T09:08:39.118Z,82.04
2019-05-22T09:11:07.936Z,81.63
2019-05-22T09:13:37.480Z,81.46
2019-05-22T09:16:08.529Z,80.25
2019-05-22T09:18:39.719Z,81.34
2019-05-22T09:21:09.175Z,80.89
2019-05-22T09:23:38.837Z,78.67
2019-05-22T09:26:11.004Z,79.81
2019-05-22T09:28:39.728Z,80.11
2019-05-22T09:31:08.473Z,76.96
2019-05-22T09:33:37.524Z,76.01
2019-05-22T09:36:06.797Z,75.48
2019-05-22T09:38:35.676Z,75.73
2019-05-22T09:41:05.199Z,76.87
2019-05-22T09:43:34.300Z,75.86
2019-05-22T09:46:03.383Z,76.92
2019-05-22T09:48:32.673Z,78.07
2019-05-22T09:51:01.612Z,77.82
2019-05-22T09:53:31.254Z,77.86
2019-05-22T09:55:59.969Z,79.11
2019-05-22T09:58:28.779Z,77.26
2019-05-22T10:00:57.581Z,76.40
2019-05-22T10:03:26.721Z,77.34
2019-05-22T10:05:55.575Z,77.73
2019-05-22T10:08:24.355Z,77.02
2019-05-22T10:10:53.192Z,76.18
2019-05-22T10:13:23.694Z,77.10
2019-05-22T10:15:52.523Z,75.06
2019-05-22T10:18:21.260Z,76.16
2019-05-22T10:20:50.057Z,73.66
2019-05-22T10:23:19.557Z,73.43
2019-05-22T10:25:48.383Z,73.43
2019-05-22T10:28:17.570Z,75.47
2019-05-22T10:30:46.211Z,74.50
2019-05-22T10:33:15.061Z,75.92
2019-05-22T10:35:44.083Z,76.42
2019-05-22T10:38:12.818Z,76.07
2019-05-22T10:40:41.457Z,75.95
2019-05-22T10:43:10.116Z,75.32
2019-05-22T10:45:39.384Z,76.59
2019-05-22T10:48:08.074Z,73.92
2019-05-22T10:50:37.351Z,74.57
2019-05-22T10:53:06.368Z,73.85
2019-05-22T10:55:35.730Z,73.99
2019-05-22T10:58:05.545Z,72.08
2019-05-22T11:00:34.356Z,71.18
2019-05-22T11:03:03.341Z,72.48
2019-05-22T11:05:32.457Z,72.03
2019-05-22T11:08:01.376Z,70.63
2019-05-22T11:10:30.451Z,70.61
2019-05-22T11:12:59.611Z,70.93
2019-05-22T11:15:29.047Z,70.22
2019-05-22T11:17:58.729Z,70.33
2019-05-22T11:20:28.015Z,68.75
2019-05-22T11:22:57.508Z,67.35
2019-05-22T11:25:26.595Z,67.08
2019-05-22T11:27:55.416Z,68.16
2019-05-22T11:30:24.614Z,68.87
2019-05-22T11:32:54.828Z,68.90
2019-05-22T11:35:23.763Z,65.81
2019-05-22T11:37:52.607Z,65.89
2019-05-22T11:40:21.940Z,66.40
2019-05-22T11:42:52.096Z,66.57
2019-05-22T11:45:21.451Z,65.77
2019-05-22T11:47:50.368Z,66.64
2019-05-22T11:50:19.955Z,67.50
2019-05-22T11:52:48.766Z,69.20
2019-05-22T11:55:18.074Z,67.64
2019-05-22T11:57:46.986Z,68.10
2019-05-22T12:00:17.456Z,67.49
2019-05-22T12:02:46.589Z,69.26
2019-05-22T12:05:16.051Z,70.27
2019-05-22T12:07:46.621Z,71.17
2019-05-22T12:10:15.625Z,69.64
2019-05-22T12:12:45.034Z,68.91
2019-05-22T12:15:14.849Z,69.45
2019-05-22T12:17:45.047Z,67.23
2019-05-22T12:20:14.539Z,67.12
2019-05-22T12:22:43.692Z,70.12
2019-05-22T12:25:14.986Z,69.77
2019-05-22T12:27:43.650Z,68.29
2019-05-22T12:30:12.931Z,66.40
2019-05-22T12:32:41.763Z,66.30
2019-05-22T12:35:12.444Z,67.38
2019-05-22T12:37:42.874Z,66.68
2019-05-22T12:40:14.179Z,65.45
2019-05-22T12:42:44.363Z,66.30
2019-05-22T12:45:13.649Z,66.53
2019-05-22T12:47:43.171Z,68.22
2019-05-22T12:50:14.903Z,67.90
2019-05-22T12:52:47.312Z,65.94
2019-05-22T12:55:16.923Z,63.94
2019-05-22T12:57:46.382Z,64.83
2019-05-22T13:00:17.465Z,63.89
2019-05-22T13:02:46.394Z,63.36
2019-05-22T13:05:16.076Z,63.79
2019-05-22T13:07:45.366Z,64.15
2019-05-22T13:10:17.081Z,65.54
2019-05-22T13:12:46.198Z,63.95
2019-05-22T13:15:15.047Z,62.32
2019-05-22T13:17:45.153Z,63.82
2019-05-22T13:20:21.402Z,64.00
2019-05-22T13:22:50.737Z,63.37
2019-05-22T13:25:20.884Z,64.61
2019-05-22T13:27:50.339Z,63.50
2019-05-22T13:30:23.140Z,63.60
2019-05-22T13:32:52.314Z,62.35
2019-05-22T13:35:23.238Z,60.25
2019-05-22T13:37:51.911Z,63.26
2019-05-22T13:40:27.660Z,61.34
2019-05-22T13:42:51.415Z,59.02
2019-05-22T13:45:29.184Z,59.98
2019-05-22T13:47:53.513Z,58.28
2019-05-22T13:50:22.184Z,60.27
2019-05-22T13:52:51.134Z,59.64
2019-05-22T13:55:20.512Z,58.27
2019-05-22T13:57:49.361Z,58.90
2019-05-22T14:00:19.678Z,57.93
2019-05-22T14:02:48.836Z,58.25
2019-05-22T14:05:17.912Z,59.88
2019-05-22T14:07:46.629Z,59.19
2019-05-22T14:10:15.461Z,58.43
2019-05-22T14:12:44.139Z,57.99
2019-05-22T14:15:13.055Z,57.85
2019-05-22T14:17:41.779Z,56.69
2019-05-22T14:20:11.401Z,57.81
2019-05-22T14:22:40.129Z,56.02
2019-05-22T14:25:09.150Z,55.07
2019-05-22T14:27:41.511Z,55.57
2019-05-22T14:30:09.140Z,57.04
2019-05-22T14:32:37.871Z,58.56
2019-05-22T15:10:05.521Z,54.36
2019-05-22T15:12:34.748Z,54.17
2019-05-22T15:15:03.577Z,54.72
2019-05-22T15:17:33.238Z,52.61
2019-05-22T15:20:03.593Z,53.05
2019-05-22T15:22:32.326Z,54.90
2019-05-22T15:25:01.481Z,56.15
2019-05-22T15:27:30.273Z,52.99
2019-05-22T15:30:00.129Z,53.97
2019-05-22T15:32:29.056Z,54.43
2019-05-22T15:34:57.966Z,54.64
2019-05-22T15:37:28.408Z,52.42
2019-05-22T15:39:58.075Z,52.31
2019-05-22T15:42:38.333Z,52.66
2019-05-22T15:45:09.628Z,52.66
2019-05-22T15:47:53.151Z,53.25
2019-05-22T15:50:13.271Z,53.24
2019-05-22T15:52:43.229Z,52.50
2019-05-22T15:55:12.962Z,52.04
2019-05-22T15:58:48.905Z,52.61
2019-05-22T16:01:20.019Z,51.94
2019-05-22T16:03:49.378Z,51.92
2019-05-22T16:06:19.101Z,52.68
2019-05-22T16:08:48.689Z,52.37
2019-05-22T16:11:18.730Z,51.47
2019-05-22T16:14:01.923Z,52.09
2019-05-22T16:16:32.106Z,52.41
2019-05-22T16:19:04.833Z,51.67
2019-05-22T16:21:34.957Z,51.10
2019-05-22T16:24:12.729Z,50.74
2019-05-22T16:27:02.689Z,49.58
2019-05-22T16:29:36.884Z,49.82
2019-05-22T16:32:10.814Z,51.49
2019-05-22T16:34:43.332Z,48.78
2019-05-22T16:37:14.406Z,48.78
2019-05-22T16:39:52.482Z,47.99
2019-05-22T16:42:26.565Z,51.15
2019-05-22T16:45:05.822Z,49.24
2019-05-22T16:47:38.229Z,48.98
2019-05-22T16:50:11.085Z,52.02
2019-05-22T16:52:46.172Z,51.02
2019-05-22T16:55:28.075Z,51.20
2019-05-22T17:02:18.916Z,51.19
2019-05-22T17:05:56.671Z,50.47
2019-05-22T17:08:48.663Z,45.92
2019-05-22T17:12:04.876Z,45.92
2019-05-22T17:14:34.572Z,47.64
2019-05-22T17:17:03.314Z,46.12
2019-05-22T17:19:32.180Z,45.92
2019-05-22T17:22:07.884Z,44.83
2019-05-22T17:24:36.473Z,44.83
2019-05-22T17:27:07.000Z,44.97
2019-05-22T17:29:36.035Z,44.43
2019-05-22T17:32:05.135Z,44.69
2019-05-22T17:34:38.624Z,46.05
2019-05-22T17:37:11.506Z,46.05
2019-05-22T17:39:44.139Z,45.99
2019-05-22T17:42:14.669Z,45.99
2019-05-22T17:44:45.855Z,48.10
2019-05-22T17:47:14.647Z,47.67
2019-05-22T17:49:43.750Z,49.79
2019-05-22T17:52:13.329Z,49.79
2019-05-22T17:54:42.761Z,49.09
2019-05-22T17:57:11.516Z,49.71
2019-05-22T17:59:40.744Z,49.71
2019-05-22T18:02:11.371Z,51.96
2019-05-22T18:04:40.026Z,52.04
2019-05-22T18:07:09.318Z,51.21
2019-05-22T18:09:38.830Z,51.48
2019-05-22T18:12:16.538Z,51.39
2019-05-22T18:33:56.607Z,53.93
2019-05-22T18:48:54.219Z,61.07
2019-05-22T18:52:11.897Z,61.07
2019-05-22T19:18:09.587Z,65.84
2019-05-22T19:32:25.551Z,69.69
2019-05-22T21:28:37.808Z,92.95
2019-05-22T21:31:15.087Z,93.94
2019-05-22T21:34:03.824Z,94.13
2019-05-22T21:36:49.012Z,95.82
2019-05-22T21:39:29.985Z,95.18
2019-05-22T21:42:01.926Z,93.73
2019-05-22T21:45:05.895Z,94.61
2019-05-22T21:47:40.930Z,96.84
2019-05-22T21:50:25.027Z,98.10
2019-05-22T21:53:16.897Z,99.00
2019-05-22T21:56:06.387Z,98.79
2019-05-22T21:58:54.191Z,98.09
2019-05-22T22:01:36.567Z,98.64
2019-05-22T22:04:29.560Z,98.54
2019-05-22T22:07:27.962Z,97.10
2019-05-22T22:10:18.324Z,96.65
2019-05-22T22:12:55.086Z,98.47
2019-05-22T22:15:51.970Z,99.87
2019-05-22T22:18:47.777Z,100.00
2019-05-22T22:21:58.138Z,100.00
2019-05-22T22:25:27.242Z,100.00
2019-05-22T22:28:15.797Z,100.00
2019-05-22T22:31:04.400Z,100.00
2019-05-22T22:33:57.500Z,100.00
2019-05-22T22:36:34.577Z,100.00
2019-05-22T22:39:29.614Z,100.00
2019-05-22T22:42:12.775Z,100.00
2019-05-22T22:45:15.360Z,100.00
2019-05-22T22:48:18.286Z,100.00
2019-05-22T22:54:31.196Z,100.00
2019-05-22T22:57:43.845Z,100.00
2019-05-22T23:00:39.790Z,100.00
2019-05-22T23:03:23.646Z,100.00
2019-05-22T23:05:53.641Z,100.00
2019-05-22T23:08:27.462Z,100.00
2019-05-22T23:10:56.131Z,100.00
2019-05-22T23:13:25.347Z,100.00
2019-05-22T23:15:54.501Z,100.00
2019-05-22T23:19:07.773Z,100.00
2019-05-22T23:21:36.017Z,100.00
2019-05-22T23:24:04.250Z,100.00
2019-05-22T23:26:33.846Z,100.00
2019-05-22T23:29:03.064Z,100.00
2019-05-22T23:31:33.031Z,100.00
2019-05-22T23:34:02.051Z,100.00
2019-05-22T23:36:30.695Z,100.00
2019-05-22T23:39:01.256Z,100.00
2019-05-22T23:41:33.114Z,100.00
2019-05-22T23:44:02.594Z,100.00
2019-05-22T23:46:32.939Z,100.00
2019-05-22T23:49:02.262Z,100.00
2019-05-22T23:51:30.891Z,100.00
2019-05-22T23:54:01.662Z,100.00
2019-05-22T23:56:32.677Z,100.00
2019-05-22T23:59:02.087Z,100.00
